NGN921P LGRP-EDDG
Flight info
| Callsign | NGN921P |
|---|---|
| Flight time | 3h 23m |
| Altitude | 36000 |
| Route | VANES UM601 ADESO UN133 RIGRO DCT ESOPO DCT DISOR DCT LONTA UL608 DOLEV DCT RENKA DCT TESDU DCT AMETU T852 KULIX T842 ADEMI Z850 HMM |
| Aircraft | A320/M-SDE3FGHIJ1LORVWXY/SB1 |
Departure
| Time | 2026-04-24 09:31 |
|---|---|
| Airport | Rhodes International Airport "Diagoras" (LGRP) |
Arrival
| Time | 2026-04-24 12:54 |
|---|---|
| Airport | Münster Osnabrück Airport (EDDG) |
| Time | Latitude | Longitude | Altitude | Speed | Heading |
|---|---|---|---|---|---|
| 2026-04-24 08:35 | 36.40438 | 28.09392 | 29 ft | 0 kts | 160° |
| 2026-04-24 09:22 | 36.40458 | 28.09383 | 29 ft | 4 kts | 160° |
| 2026-04-24 09:22 | 36.40481 | 28.09374 | 29 ft | 3 kts | 160° |
| 2026-04-24 09:23 | 36.40500 | 28.09358 | 29 ft | 4 kts | 109° |
| 2026-04-24 09:23 | 36.40499 | 28.09328 | 29 ft | 4 kts | 68° |
| 2026-04-24 09:23 | 36.40497 | 28.09320 | 29 ft | 0 kts | 65° |
| 2026-04-24 09:26 | 36.40498 | 28.09323 | 29 ft | 3 kts | 65° |
| 2026-04-24 09:27 | 36.40533 | 28.09370 | 29 ft | 10 kts | 35° |
| 2026-04-24 09:27 | 36.40595 | 28.09447 | 29 ft | 16 kts | 62° |
| 2026-04-24 09:27 | 36.40641 | 28.09599 | 27 ft | 22 kts | 70° |
| 2026-04-24 09:27 | 36.40698 | 28.09796 | 25 ft | 26 kts | 70° |
| 2026-04-24 09:28 | 36.40760 | 28.10007 | 24 ft | 25 kts | 70° |
| 2026-04-24 09:28 | 36.40815 | 28.10193 | 21 ft | 21 kts | 70° |
| 2026-04-24 09:28 | 36.40865 | 28.10366 | 23 ft | 21 kts | 70° |
| 2026-04-24 09:28 | 36.40935 | 28.10430 | 23 ft | 9 kts | 336° |
| 2026-04-24 09:29 | 36.40942 | 28.10426 | 23 ft | 0 kts | 336° |
| 2026-04-24 09:29 | 36.40953 | 28.10420 | 22 ft | 6 kts | 336° |
| 2026-04-24 09:29 | 36.41003 | 28.10361 | 24 ft | 13 kts | 305° |
| 2026-04-24 09:29 | 36.41019 | 28.10271 | 24 ft | 6 kts | 249° |
| 2026-04-24 09:30 | 36.41018 | 28.10267 | 23 ft | 2 kts | 249° |
| 2026-04-24 09:30 | 36.40868 | 28.09761 | 23 ft | 100 kts | 250° |
| 2026-04-24 09:30 | 36.40674 | 28.09095 | 31 ft | 142 kts | 250° |
| 2026-04-24 09:30 | 36.40301 | 28.07844 | 547 ft | 155 kts | 250° |
| 2026-04-24 09:31 | 36.40008 | 28.06543 | 1344 ft | 161 kts | 265° |
| 2026-04-24 09:31 | 36.39957 | 28.05040 | 1818 ft | 187 kts | 269° |
| 2026-04-24 09:31 | 36.39918 | 28.03317 | 2319 ft | 213 kts | 268° |
| 2026-04-24 09:31 | 36.39847 | 28.01394 | 2967 ft | 238 kts | 267° |
| 2026-04-24 09:32 | 36.39745 | 27.99247 | 3633 ft | 259 kts | 266° |
| 2026-04-24 09:32 | 36.39624 | 27.97010 | 3922 ft | 260 kts | 265° |
| 2026-04-24 09:32 | 36.39493 | 27.94765 | 4284 ft | 262 kts | 265° |
| 2026-04-24 09:32 | 36.39351 | 27.92477 | 5158 ft | 268 kts | 265° |
| 2026-04-24 09:33 | 36.39210 | 27.90176 | 6437 ft | 268 kts | 265° |
| 2026-04-24 09:33 | 36.39063 | 27.87857 | 7613 ft | 271 kts | 265° |
| 2026-04-24 09:33 | 36.38913 | 27.85519 | 8731 ft | 274 kts | 265° |
| 2026-04-24 09:33 | 36.38756 | 27.83140 | 9812 ft | 278 kts | 264° |
| 2026-04-24 09:34 | 36.38596 | 27.80714 | 10620 ft | 292 kts | 264° |
| 2026-04-24 09:34 | 36.38431 | 27.78137 | 11319 ft | 304 kts | 264° |
| 2026-04-24 09:34 | 36.38308 | 27.75504 | 12278 ft | 308 kts | 269° |
| 2026-04-24 09:34 | 36.38532 | 27.72850 | 13279 ft | 311 kts | 277° |
| 2026-04-24 09:35 | 36.38879 | 27.70201 | 14273 ft | 312 kts | 276° |
| 2026-04-24 09:35 | 36.39217 | 27.67538 | 15220 ft | 314 kts | 276° |
| 2026-04-24 09:35 | 36.39554 | 27.64853 | 16123 ft | 316 kts | 276° |
| 2026-04-24 09:35 | 36.39898 | 27.62151 | 16986 ft | 318 kts | 276° |
| 2026-04-24 09:36 | 36.40240 | 27.59428 | 17847 ft | 320 kts | 276° |
| 2026-04-24 09:36 | 36.40579 | 27.56694 | 18715 ft | 322 kts | 275° |
| 2026-04-24 09:36 | 36.40924 | 27.53941 | 19564 ft | 324 kts | 275° |
| 2026-04-24 09:36 | 36.41271 | 27.51156 | 20385 ft | 328 kts | 275° |
| 2026-04-24 09:37 | 36.41624 | 27.48342 | 21160 ft | 332 kts | 275° |
| 2026-04-24 09:37 | 36.41981 | 27.45494 | 21906 ft | 336 kts | 275° |
| 2026-04-24 09:37 | 36.42335 | 27.42609 | 22625 ft | 339 kts | 274° |
| 2026-04-24 09:37 | 36.42693 | 27.39693 | 23339 ft | 344 kts | 274° |
| 2026-04-24 09:38 | 36.43060 | 27.36744 | 24050 ft | 348 kts | 274° |
| 2026-04-24 09:38 | 36.43424 | 27.33799 | 24781 ft | 352 kts | 274° |
| 2026-04-24 09:38 | 36.43799 | 27.30781 | 25491 ft | 355 kts | 274° |
| 2026-04-24 09:38 | 36.44177 | 27.27733 | 26192 ft | 358 kts | 274° |
| 2026-04-24 09:39 | 36.44552 | 27.24663 | 26852 ft | 361 kts | 274° |
| 2026-04-24 09:39 | 36.44916 | 27.21568 | 27462 ft | 364 kts | 273° |
| 2026-04-24 09:39 | 36.45290 | 27.18440 | 28085 ft | 368 kts | 274° |
| 2026-04-24 09:39 | 36.45679 | 27.15288 | 28677 ft | 371 kts | 274° |
| 2026-04-24 09:40 | 36.46065 | 27.12108 | 29270 ft | 374 kts | 273° |
| 2026-04-24 09:40 | 36.46451 | 27.08892 | 29850 ft | 377 kts | 273° |
| 2026-04-24 09:40 | 36.46878 | 27.05663 | 30398 ft | 382 kts | 278° |
| 2026-04-24 09:40 | 36.47904 | 27.02544 | 30900 ft | 401 kts | 295° |
| 2026-04-24 09:41 | 36.49795 | 26.99893 | 31383 ft | 424 kts | 313° |
| 2026-04-24 09:41 | 36.52215 | 26.97724 | 31869 ft | 431 kts | 316° |
| 2026-04-24 09:41 | 36.54670 | 26.95580 | 32451 ft | 430 kts | 316° |
| 2026-04-24 09:41 | 36.57095 | 26.93422 | 33112 ft | 427 kts | 315° |
| 2026-04-24 09:42 | 36.59499 | 26.91264 | 33740 ft | 426 kts | 315° |
| 2026-04-24 09:42 | 36.61900 | 26.89115 | 34388 ft | 423 kts | 316° |
| 2026-04-24 09:42 | 36.64286 | 26.86974 | 35004 ft | 422 kts | 316° |
| 2026-04-24 09:42 | 36.66661 | 26.84841 | 35565 ft | 421 kts | 316° |
| 2026-04-24 09:43 | 36.69024 | 26.82730 | 35909 ft | 415 kts | 316° |
| 2026-04-24 09:43 | 36.71350 | 26.80631 | 35975 ft | 411 kts | 316° |
| 2026-04-24 09:43 | 36.75959 | 26.76463 | 35980 ft | 408 kts | 316° |
| 2026-04-24 09:44 | 36.80533 | 26.72340 | 35982 ft | 408 kts | 316° |
| 2026-04-24 09:44 | 36.85136 | 26.68185 | 35980 ft | 408 kts | 316° |
| 2026-04-24 09:45 | 36.89737 | 26.64031 | 35982 ft | 408 kts | 316° |
| 2026-04-24 09:45 | 36.94337 | 26.59867 | 35983 ft | 408 kts | 316° |
| 2026-04-24 09:46 | 36.98937 | 26.55684 | 35988 ft | 408 kts | 316° |
| 2026-04-24 09:46 | 37.03542 | 26.51499 | 35986 ft | 409 kts | 316° |
| 2026-04-24 09:47 | 37.08146 | 26.47307 | 35989 ft | 409 kts | 316° |
| 2026-04-24 09:47 | 37.12755 | 26.43118 | 35985 ft | 409 kts | 316° |
| 2026-04-24 09:48 | 37.17358 | 26.38919 | 35986 ft | 409 kts | 316° |
| 2026-04-24 09:48 | 37.21936 | 26.34743 | 35995 ft | 409 kts | 316° |
| 2026-04-24 09:49 | 37.26535 | 26.30516 | 35996 ft | 409 kts | 316° |
| 2026-04-24 09:49 | 37.31135 | 26.26298 | 35988 ft | 409 kts | 316° |
| 2026-04-24 09:50 | 37.35732 | 26.22075 | 35993 ft | 409 kts | 316° |
| 2026-04-24 09:50 | 37.40324 | 26.17843 | 35989 ft | 409 kts | 316° |
| 2026-04-24 09:51 | 37.44918 | 26.13610 | 35998 ft | 409 kts | 316° |
| 2026-04-24 09:51 | 37.49508 | 26.09375 | 35995 ft | 409 kts | 316° |
| 2026-04-24 09:52 | 37.54074 | 26.05164 | 36000 ft | 410 kts | 316° |
| 2026-04-24 09:52 | 37.58671 | 26.00903 | 36006 ft | 410 kts | 316° |
| 2026-04-24 09:53 | 37.63279 | 25.96639 | 36007 ft | 410 kts | 316° |
| 2026-04-24 09:53 | 37.67884 | 25.92376 | 36011 ft | 410 kts | 316° |
| 2026-04-24 09:54 | 37.72477 | 25.88089 | 36015 ft | 411 kts | 316° |
| 2026-04-24 09:54 | 37.77050 | 25.83841 | 36018 ft | 411 kts | 316° |
| 2026-04-24 09:55 | 37.81648 | 25.79545 | 36024 ft | 410 kts | 316° |
| 2026-04-24 09:55 | 37.86231 | 25.75247 | 36023 ft | 410 kts | 316° |
| 2026-04-24 09:56 | 37.90046 | 25.71680 | 36027 ft | 410 kts | 316° |
| 2026-04-24 09:56 | 37.94630 | 25.67388 | 36028 ft | 409 kts | 316° |
| 2026-04-24 09:57 | 37.99221 | 25.63093 | 36029 ft | 409 kts | 316° |
| 2026-04-24 09:57 | 38.03786 | 25.58786 | 36028 ft | 409 kts | 317° |
| 2026-04-24 09:58 | 38.08364 | 25.54477 | 36023 ft | 410 kts | 317° |
| 2026-04-24 09:58 | 38.12943 | 25.50156 | 36021 ft | 410 kts | 317° |
| 2026-04-24 09:59 | 38.17526 | 25.45836 | 36020 ft | 411 kts | 317° |
| 2026-04-24 09:59 | 38.22109 | 25.41497 | 36018 ft | 411 kts | 317° |
| 2026-04-24 10:00 | 38.26695 | 25.37151 | 36019 ft | 411 kts | 317° |
| 2026-04-24 10:00 | 38.31281 | 25.32789 | 36018 ft | 412 kts | 318° |
| 2026-04-24 10:01 | 38.35854 | 25.28466 | 36021 ft | 412 kts | 318° |
| 2026-04-24 10:01 | 38.40445 | 25.24076 | 36023 ft | 413 kts | 319° |
| 2026-04-24 10:02 | 38.45043 | 25.19679 | 36023 ft | 413 kts | 319° |
| 2026-04-24 10:02 | 38.49648 | 25.15279 | 36022 ft | 413 kts | 319° |
| 2026-04-24 10:03 | 38.54256 | 25.10879 | 36021 ft | 414 kts | 319° |
| 2026-04-24 10:03 | 38.58861 | 25.06455 | 36018 ft | 414 kts | 319° |
| 2026-04-24 10:04 | 38.63463 | 25.02025 | 36017 ft | 414 kts | 320° |
| 2026-04-24 10:04 | 38.68083 | 24.97595 | 36018 ft | 415 kts | 320° |
| 2026-04-24 10:05 | 38.72697 | 24.93157 | 36022 ft | 415 kts | 320° |
| 2026-04-24 10:05 | 38.77316 | 24.88699 | 36025 ft | 415 kts | 320° |
| 2026-04-24 10:06 | 38.84201 | 24.82051 | 36026 ft | 415 kts | 320° |
| 2026-04-24 10:07 | 38.88809 | 24.77577 | 36025 ft | 415 kts | 320° |
| 2026-04-24 10:07 | 38.93426 | 24.73101 | 36028 ft | 416 kts | 320° |
| 2026-04-24 10:08 | 38.98042 | 24.68618 | 36029 ft | 416 kts | 321° |
| 2026-04-24 10:08 | 39.02656 | 24.64126 | 36029 ft | 416 kts | 321° |
| 2026-04-24 10:09 | 39.07261 | 24.59617 | 36031 ft | 416 kts | 321° |
| 2026-04-24 10:09 | 39.11842 | 24.55138 | 36032 ft | 416 kts | 321° |
| 2026-04-24 10:10 | 39.16459 | 24.50629 | 36035 ft | 416 kts | 321° |
| 2026-04-24 10:10 | 39.21069 | 24.46121 | 36035 ft | 416 kts | 321° |
| 2026-04-24 10:11 | 39.25660 | 24.41582 | 36035 ft | 416 kts | 321° |
| 2026-04-24 10:11 | 39.30268 | 24.37062 | 36034 ft | 416 kts | 322° |
| 2026-04-24 10:12 | 39.34867 | 24.32534 | 36034 ft | 416 kts | 322° |
| 2026-04-24 10:12 | 39.39466 | 24.27993 | 36034 ft | 416 kts | 322° |
| 2026-04-24 10:13 | 39.44068 | 24.23443 | 36033 ft | 416 kts | 322° |
| 2026-04-24 10:13 | 39.48636 | 24.18926 | 36031 ft | 416 kts | 322° |
| 2026-04-24 10:14 | 39.53233 | 24.14361 | 36036 ft | 416 kts | 322° |
| 2026-04-24 10:14 | 39.57824 | 24.09792 | 36035 ft | 416 kts | 323° |
| 2026-04-24 10:15 | 39.62417 | 24.05231 | 36036 ft | 416 kts | 323° |
| 2026-04-24 10:15 | 39.67003 | 24.00659 | 36034 ft | 416 kts | 323° |
| 2026-04-24 10:16 | 39.71593 | 23.96074 | 36032 ft | 416 kts | 323° |
| 2026-04-24 10:16 | 39.76181 | 23.91484 | 36035 ft | 416 kts | 323° |
| 2026-04-24 10:17 | 39.80757 | 23.86888 | 36035 ft | 416 kts | 323° |
| 2026-04-24 10:17 | 39.85352 | 23.82288 | 36037 ft | 416 kts | 323° |
| 2026-04-24 10:18 | 39.89895 | 23.77702 | 36047 ft | 416 kts | 323° |
| 2026-04-24 10:18 | 39.94468 | 23.73094 | 36049 ft | 415 kts | 323° |
| 2026-04-24 10:19 | 39.99035 | 23.68480 | 36052 ft | 415 kts | 323° |
| 2026-04-24 10:19 | 40.03600 | 23.63886 | 36049 ft | 415 kts | 323° |
| 2026-04-24 10:20 | 40.08155 | 23.59251 | 36049 ft | 414 kts | 323° |
| 2026-04-24 10:20 | 40.12710 | 23.54629 | 36058 ft | 414 kts | 323° |
| 2026-04-24 10:21 | 40.17232 | 23.50047 | 36054 ft | 414 kts | 323° |
| 2026-04-24 10:21 | 40.21770 | 23.45412 | 36053 ft | 413 kts | 323° |
| 2026-04-24 10:22 | 40.26307 | 23.40793 | 36057 ft | 413 kts | 323° |
| 2026-04-24 10:22 | 40.30835 | 23.36152 | 36062 ft | 413 kts | 323° |
| 2026-04-24 10:23 | 40.35369 | 23.31528 | 36064 ft | 413 kts | 323° |
| 2026-04-24 10:23 | 40.39891 | 23.26890 | 36063 ft | 412 kts | 323° |
| 2026-04-24 10:24 | 40.44414 | 23.22248 | 36063 ft | 412 kts | 323° |
| 2026-04-24 10:24 | 40.48923 | 23.17598 | 36063 ft | 412 kts | 323° |
| 2026-04-24 10:25 | 40.53431 | 23.12956 | 36062 ft | 412 kts | 324° |
| 2026-04-24 10:25 | 40.57934 | 23.08307 | 36063 ft | 411 kts | 323° |
| 2026-04-24 10:26 | 40.62437 | 23.03659 | 36064 ft | 411 kts | 324° |
| 2026-04-24 10:26 | 40.66933 | 22.98992 | 36065 ft | 411 kts | 323° |
| 2026-04-24 10:27 | 40.71387 | 22.94364 | 36068 ft | 411 kts | 323° |
| 2026-04-24 10:27 | 40.75874 | 22.89712 | 36060 ft | 410 kts | 323° |
| 2026-04-24 10:28 | 40.80358 | 22.85043 | 36064 ft | 410 kts | 323° |
| 2026-04-24 10:28 | 40.84833 | 22.80356 | 36067 ft | 410 kts | 323° |
| 2026-04-24 10:29 | 40.89311 | 22.75695 | 36061 ft | 410 kts | 324° |
| 2026-04-24 10:29 | 40.93790 | 22.71007 | 36067 ft | 410 kts | 323° |
| 2026-04-24 10:30 | 40.98252 | 22.66310 | 36068 ft | 410 kts | 323° |
| 2026-04-24 10:30 | 41.02680 | 22.61644 | 36069 ft | 410 kts | 324° |
| 2026-04-24 10:31 | 41.07147 | 22.56953 | 36073 ft | 410 kts | 324° |
| 2026-04-24 10:31 | 41.11608 | 22.52249 | 36072 ft | 409 kts | 324° |
| 2026-04-24 10:32 | 41.16065 | 22.47539 | 36067 ft | 409 kts | 324° |
| 2026-04-24 10:32 | 41.20514 | 22.42830 | 36065 ft | 409 kts | 324° |
| 2026-04-24 10:33 | 41.24965 | 22.38128 | 36065 ft | 409 kts | 324° |
| 2026-04-24 10:33 | 41.29409 | 22.33396 | 36069 ft | 409 kts | 324° |
| 2026-04-24 10:34 | 41.33845 | 22.28670 | 36070 ft | 408 kts | 324° |
| 2026-04-24 10:34 | 41.38246 | 22.23971 | 36063 ft | 408 kts | 324° |
| 2026-04-24 10:35 | 41.42675 | 22.19247 | 36067 ft | 408 kts | 324° |
| 2026-04-24 10:35 | 41.47106 | 22.14511 | 36066 ft | 408 kts | 324° |
| 2026-04-24 10:36 | 41.51534 | 22.09771 | 36067 ft | 408 kts | 324° |
| 2026-04-24 10:36 | 41.55957 | 22.05032 | 36069 ft | 407 kts | 324° |
| 2026-04-24 10:37 | 41.60366 | 22.00285 | 36068 ft | 407 kts | 324° |
| 2026-04-24 10:37 | 41.64772 | 21.95522 | 36069 ft | 407 kts | 324° |
| 2026-04-24 10:38 | 41.69179 | 21.90768 | 36064 ft | 406 kts | 324° |
| 2026-04-24 10:38 | 41.73576 | 21.86004 | 36072 ft | 407 kts | 324° |
| 2026-04-24 10:39 | 41.77979 | 21.81224 | 36071 ft | 406 kts | 324° |
| 2026-04-24 10:39 | 41.82339 | 21.76491 | 36073 ft | 405 kts | 324° |
| 2026-04-24 10:40 | 41.86719 | 21.71741 | 36071 ft | 405 kts | 324° |
| 2026-04-24 10:40 | 41.91097 | 21.66970 | 36071 ft | 405 kts | 324° |
| 2026-04-24 10:41 | 41.95465 | 21.62199 | 36068 ft | 405 kts | 324° |
| 2026-04-24 10:41 | 41.99836 | 21.57410 | 36065 ft | 405 kts | 324° |
| 2026-04-24 10:42 | 42.04203 | 21.52621 | 36063 ft | 405 kts | 324° |
| 2026-04-24 10:42 | 42.08539 | 21.47867 | 36069 ft | 404 kts | 324° |
| 2026-04-24 10:43 | 42.12903 | 21.43072 | 36066 ft | 405 kts | 324° |
| 2026-04-24 10:43 | 42.17082 | 21.37978 | 36064 ft | 409 kts | 314° |
| 2026-04-24 10:44 | 42.20769 | 21.32115 | 36063 ft | 410 kts | 314° |
| 2026-04-24 10:44 | 42.24455 | 21.26252 | 36063 ft | 410 kts | 314° |
| 2026-04-24 10:45 | 42.28151 | 21.20382 | 36063 ft | 410 kts | 314° |
| 2026-04-24 10:45 | 42.31844 | 21.14518 | 36064 ft | 410 kts | 314° |
| 2026-04-24 10:46 | 42.34912 | 21.09627 | 36069 ft | 410 kts | 314° |
| 2026-04-24 10:46 | 42.38589 | 21.03720 | 36061 ft | 410 kts | 314° |
| 2026-04-24 10:47 | 42.42275 | 20.97821 | 36058 ft | 411 kts | 314° |
| 2026-04-24 10:47 | 42.45965 | 20.91908 | 36065 ft | 411 kts | 314° |
| 2026-04-24 10:48 | 42.49626 | 20.86015 | 36057 ft | 411 kts | 314° |
| 2026-04-24 10:48 | 42.53300 | 20.80082 | 36057 ft | 411 kts | 314° |
| 2026-04-24 10:49 | 42.56986 | 20.74135 | 36059 ft | 412 kts | 314° |
| 2026-04-24 10:49 | 42.60667 | 20.68190 | 36065 ft | 411 kts | 314° |
| 2026-04-24 10:50 | 42.64344 | 20.62215 | 36065 ft | 412 kts | 314° |
| 2026-04-24 10:50 | 42.68019 | 20.56248 | 36069 ft | 412 kts | 314° |
| 2026-04-24 10:51 | 42.71669 | 20.50310 | 36069 ft | 412 kts | 314° |
| 2026-04-24 10:51 | 42.75339 | 20.44321 | 36072 ft | 412 kts | 314° |
| 2026-04-24 10:52 | 42.79009 | 20.38316 | 36072 ft | 412 kts | 314° |
| 2026-04-24 10:52 | 42.82689 | 20.32334 | 36072 ft | 411 kts | 317° |
| 2026-04-24 10:53 | 42.87016 | 20.27380 | 36074 ft | 406 kts | 327° |
| 2026-04-24 10:53 | 42.91519 | 20.22731 | 36076 ft | 406 kts | 327° |
| 2026-04-24 10:54 | 42.96009 | 20.18059 | 36079 ft | 405 kts | 327° |
| 2026-04-24 10:54 | 43.00491 | 20.13391 | 36081 ft | 405 kts | 327° |
| 2026-04-24 10:55 | 43.04980 | 20.08715 | 36084 ft | 405 kts | 327° |
| 2026-04-24 10:55 | 43.09429 | 20.04066 | 36081 ft | 405 kts | 327° |
| 2026-04-24 10:56 | 43.13905 | 19.99380 | 36078 ft | 405 kts | 327° |
| 2026-04-24 10:56 | 43.18381 | 19.94691 | 36078 ft | 405 kts | 327° |
| 2026-04-24 10:57 | 43.22866 | 19.89984 | 36077 ft | 406 kts | 327° |
| 2026-04-24 10:57 | 43.27350 | 19.85271 | 36080 ft | 406 kts | 328° |
| 2026-04-24 10:58 | 43.31827 | 19.80522 | 36080 ft | 407 kts | 327° |
| 2026-04-24 10:58 | 43.36307 | 19.75785 | 36081 ft | 406 kts | 328° |
| 2026-04-24 10:59 | 43.40792 | 19.71056 | 36089 ft | 406 kts | 328° |
| 2026-04-24 10:59 | 43.45264 | 19.66315 | 36092 ft | 406 kts | 327° |
| 2026-04-24 11:00 | 43.49732 | 19.61560 | 36094 ft | 406 kts | 327° |
| 2026-04-24 11:00 | 43.54165 | 19.56829 | 36090 ft | 405 kts | 328° |
| 2026-04-24 11:01 | 43.58628 | 19.52082 | 36093 ft | 405 kts | 327° |
| 2026-04-24 11:01 | 43.63082 | 19.47308 | 36094 ft | 406 kts | 328° |
| 2026-04-24 11:02 | 43.67554 | 19.42543 | 36097 ft | 406 kts | 328° |
| 2026-04-24 11:02 | 43.72016 | 19.37749 | 36098 ft | 406 kts | 328° |
| 2026-04-24 11:03 | 43.76474 | 19.32969 | 36100 ft | 405 kts | 327° |
| 2026-04-24 11:03 | 43.80925 | 19.28168 | 36099 ft | 405 kts | 327° |
| 2026-04-24 11:04 | 43.85348 | 19.23394 | 36101 ft | 405 kts | 327° |
| 2026-04-24 11:04 | 43.89793 | 19.18587 | 36106 ft | 406 kts | 327° |
| 2026-04-24 11:05 | 43.94247 | 19.13768 | 36108 ft | 406 kts | 327° |
| 2026-04-24 11:05 | 43.98698 | 19.08935 | 36110 ft | 405 kts | 327° |
| 2026-04-24 11:06 | 44.03143 | 19.04103 | 36113 ft | 406 kts | 327° |
| 2026-04-24 11:06 | 44.07592 | 18.99266 | 36110 ft | 406 kts | 327° |
| 2026-04-24 11:07 | 44.14238 | 18.91988 | 36115 ft | 405 kts | 328° |
| 2026-04-24 11:07 | 44.18669 | 18.87135 | 36115 ft | 405 kts | 327° |
| 2026-04-24 11:08 | 44.23077 | 18.82310 | 36114 ft | 406 kts | 327° |
| 2026-04-24 11:08 | 44.27505 | 18.77435 | 36117 ft | 405 kts | 327° |
| 2026-04-24 11:09 | 44.31933 | 18.72570 | 36109 ft | 405 kts | 327° |
| 2026-04-24 11:09 | 44.36353 | 18.67683 | 36110 ft | 406 kts | 327° |
| 2026-04-24 11:10 | 44.40778 | 18.62777 | 36111 ft | 406 kts | 327° |
| 2026-04-24 11:10 | 44.45215 | 18.57863 | 36109 ft | 407 kts | 327° |
| 2026-04-24 11:11 | 44.49654 | 18.52929 | 36112 ft | 407 kts | 327° |
| 2026-04-24 11:11 | 44.54094 | 18.47998 | 36120 ft | 407 kts | 327° |
| 2026-04-24 11:12 | 44.58531 | 18.43058 | 36118 ft | 407 kts | 327° |
| 2026-04-24 11:12 | 44.62931 | 18.38134 | 36124 ft | 407 kts | 327° |
| 2026-04-24 11:13 | 44.67358 | 18.33179 | 36132 ft | 409 kts | 327° |
| 2026-04-24 11:13 | 44.69606 | 18.30661 | 36414 ft | 416 kts | 327° |
| 2026-04-24 11:13 | 44.71870 | 18.28128 | 36904 ft | 417 kts | 327° |
| 2026-04-24 11:14 | 44.74130 | 18.25582 | 37496 ft | 415 kts | 326° |
| 2026-04-24 11:14 | 44.76374 | 18.23050 | 37988 ft | 413 kts | 326° |
| 2026-04-24 11:14 | 44.78613 | 18.20530 | 38097 ft | 410 kts | 326° |
| 2026-04-24 11:14 | 44.80831 | 18.18034 | 38110 ft | 407 kts | 326° |
| 2026-04-24 11:15 | 44.85245 | 18.13070 | 38108 ft | 405 kts | 326° |
| 2026-04-24 11:15 | 44.89640 | 18.08105 | 38108 ft | 405 kts | 326° |
| 2026-04-24 11:16 | 44.94028 | 18.03134 | 38119 ft | 404 kts | 326° |
| 2026-04-24 11:16 | 44.98417 | 17.98146 | 38118 ft | 405 kts | 326° |
| 2026-04-24 11:17 | 45.02774 | 17.93185 | 38125 ft | 405 kts | 327° |
| 2026-04-24 11:17 | 45.07159 | 17.88189 | 38129 ft | 405 kts | 326° |
| 2026-04-24 11:18 | 45.11541 | 17.83190 | 38132 ft | 405 kts | 327° |
| 2026-04-24 11:18 | 45.15921 | 17.78175 | 38138 ft | 405 kts | 327° |
| 2026-04-24 11:19 | 45.20299 | 17.73149 | 38144 ft | 405 kts | 327° |
| 2026-04-24 11:19 | 45.24675 | 17.68130 | 38141 ft | 405 kts | 327° |
| 2026-04-24 11:20 | 45.29046 | 17.63086 | 38144 ft | 404 kts | 327° |
| 2026-04-24 11:20 | 45.33406 | 17.58046 | 38145 ft | 404 kts | 327° |
| 2026-04-24 11:21 | 45.37772 | 17.53010 | 38142 ft | 404 kts | 326° |
| 2026-04-24 11:21 | 45.42127 | 17.47966 | 38151 ft | 404 kts | 327° |
| 2026-04-24 11:22 | 45.46478 | 17.42911 | 38146 ft | 403 kts | 327° |
| 2026-04-24 11:22 | 45.50825 | 17.37855 | 38135 ft | 403 kts | 326° |
| 2026-04-24 11:23 | 45.55163 | 17.32785 | 38133 ft | 403 kts | 327° |
| 2026-04-24 11:23 | 45.59479 | 17.27752 | 38129 ft | 403 kts | 327° |
| 2026-04-24 11:24 | 45.63818 | 17.22680 | 38131 ft | 403 kts | 326° |
| 2026-04-24 11:24 | 45.68154 | 17.17594 | 38131 ft | 403 kts | 326° |
| 2026-04-24 11:25 | 45.72488 | 17.12493 | 38132 ft | 403 kts | 327° |
| 2026-04-24 11:25 | 45.76826 | 17.07386 | 38135 ft | 404 kts | 326° |
| 2026-04-24 11:26 | 45.81168 | 17.02248 | 38145 ft | 404 kts | 326° |
| 2026-04-24 11:26 | 45.85510 | 16.97134 | 38137 ft | 404 kts | 327° |
| 2026-04-24 11:27 | 45.89843 | 16.91986 | 38142 ft | 404 kts | 326° |
| 2026-04-24 11:27 | 45.94145 | 16.86877 | 38145 ft | 404 kts | 326° |
| 2026-04-24 11:28 | 45.98471 | 16.81707 | 38144 ft | 404 kts | 326° |
| 2026-04-24 11:28 | 46.02809 | 16.76550 | 38139 ft | 404 kts | 327° |
| 2026-04-24 11:29 | 46.07134 | 16.71383 | 38149 ft | 403 kts | 326° |
| 2026-04-24 11:29 | 46.11439 | 16.66229 | 38146 ft | 402 kts | 326° |
| 2026-04-24 11:30 | 46.15739 | 16.61067 | 38154 ft | 402 kts | 326° |
| 2026-04-24 11:30 | 46.20032 | 16.55891 | 38146 ft | 402 kts | 326° |
| 2026-04-24 11:31 | 46.24326 | 16.50712 | 38144 ft | 402 kts | 326° |
| 2026-04-24 11:31 | 46.28623 | 16.45527 | 38133 ft | 402 kts | 326° |
| 2026-04-24 11:32 | 46.32912 | 16.40348 | 38133 ft | 402 kts | 326° |
| 2026-04-24 11:32 | 46.37197 | 16.35129 | 38134 ft | 402 kts | 326° |
| 2026-04-24 11:33 | 46.41462 | 16.29958 | 38134 ft | 403 kts | 326° |
| 2026-04-24 11:33 | 46.45752 | 16.24736 | 38140 ft | 403 kts | 326° |
| 2026-04-24 11:34 | 46.50035 | 16.19490 | 38134 ft | 403 kts | 326° |
| 2026-04-24 11:34 | 46.54320 | 16.14247 | 38129 ft | 402 kts | 326° |
| 2026-04-24 11:35 | 46.58601 | 16.09032 | 38126 ft | 402 kts | 326° |
| 2026-04-24 11:35 | 46.62872 | 16.03776 | 38128 ft | 402 kts | 326° |
| 2026-04-24 11:36 | 46.67129 | 15.98521 | 38128 ft | 401 kts | 326° |
| 2026-04-24 11:36 | 46.71393 | 15.93272 | 38127 ft | 401 kts | 326° |
| 2026-04-24 11:37 | 46.74932 | 15.88905 | 38125 ft | 401 kts | 326° |
| 2026-04-24 11:37 | 46.79879 | 15.82769 | 38122 ft | 401 kts | 326° |
| 2026-04-24 11:38 | 46.83446 | 15.78349 | 38123 ft | 401 kts | 326° |
| 2026-04-24 11:38 | 46.87657 | 15.73092 | 38120 ft | 400 kts | 325° |
| 2026-04-24 11:39 | 46.91904 | 15.67811 | 38115 ft | 400 kts | 325° |
| 2026-04-24 11:39 | 46.96133 | 15.62508 | 38113 ft | 400 kts | 325° |
| 2026-04-24 11:40 | 47.00361 | 15.57222 | 38111 ft | 399 kts | 325° |
| 2026-04-24 11:40 | 47.04574 | 15.51937 | 38104 ft | 398 kts | 325° |
| 2026-04-24 11:41 | 47.08747 | 15.46679 | 38105 ft | 398 kts | 325° |
| 2026-04-24 11:41 | 47.12946 | 15.41390 | 38101 ft | 397 kts | 325° |
| 2026-04-24 11:42 | 47.17135 | 15.36094 | 38098 ft | 397 kts | 325° |
| 2026-04-24 11:42 | 47.21329 | 15.30788 | 38100 ft | 398 kts | 325° |
| 2026-04-24 11:43 | 47.25532 | 15.25479 | 38097 ft | 398 kts | 324° |
| 2026-04-24 11:43 | 47.29715 | 15.20135 | 38095 ft | 398 kts | 324° |
| 2026-04-24 11:44 | 47.33906 | 15.14824 | 38096 ft | 398 kts | 324° |
| 2026-04-24 11:44 | 47.38075 | 15.09468 | 38100 ft | 397 kts | 324° |
| 2026-04-24 11:45 | 47.42248 | 15.04137 | 38101 ft | 396 kts | 324° |
| 2026-04-24 11:45 | 47.46412 | 14.98789 | 38099 ft | 396 kts | 324° |
| 2026-04-24 11:46 | 47.50541 | 14.93487 | 38099 ft | 395 kts | 324° |
| 2026-04-24 11:46 | 47.54708 | 14.88134 | 38097 ft | 397 kts | 324° |
| 2026-04-24 11:47 | 47.58866 | 14.82760 | 38097 ft | 397 kts | 324° |
| 2026-04-24 11:47 | 47.63028 | 14.77374 | 38100 ft | 397 kts | 324° |
| 2026-04-24 11:48 | 47.67188 | 14.71996 | 38104 ft | 396 kts | 324° |
| 2026-04-24 11:48 | 47.71331 | 14.66600 | 38106 ft | 396 kts | 324° |
| 2026-04-24 11:49 | 47.75476 | 14.61198 | 38107 ft | 396 kts | 324° |
| 2026-04-24 11:49 | 47.79617 | 14.55795 | 38112 ft | 396 kts | 324° |
| 2026-04-24 11:50 | 47.83757 | 14.50402 | 38114 ft | 395 kts | 324° |
| 2026-04-24 11:50 | 47.87881 | 14.44995 | 38116 ft | 395 kts | 324° |
| 2026-04-24 11:51 | 47.92011 | 14.39560 | 38125 ft | 396 kts | 324° |
| 2026-04-24 11:51 | 47.96168 | 14.34090 | 38130 ft | 408 kts | 323° |
| 2026-04-24 11:52 | 48.00449 | 14.28442 | 38131 ft | 412 kts | 323° |
| 2026-04-24 11:52 | 48.04729 | 14.22770 | 38141 ft | 411 kts | 323° |
| 2026-04-24 11:53 | 48.09015 | 14.17086 | 38134 ft | 411 kts | 323° |
| 2026-04-24 11:53 | 48.13303 | 14.11396 | 38133 ft | 412 kts | 323° |
| 2026-04-24 11:54 | 48.17587 | 14.05689 | 38135 ft | 412 kts | 323° |
| 2026-04-24 11:54 | 48.21873 | 13.99974 | 38148 ft | 412 kts | 323° |
| 2026-04-24 11:55 | 48.26121 | 13.94271 | 38137 ft | 412 kts | 323° |
| 2026-04-24 11:55 | 48.30398 | 13.88536 | 38143 ft | 413 kts | 323° |
| 2026-04-24 11:56 | 48.34676 | 13.82787 | 38140 ft | 412 kts | 323° |
| 2026-04-24 11:56 | 48.38960 | 13.77035 | 38151 ft | 412 kts | 323° |
| 2026-04-24 11:57 | 48.43226 | 13.71263 | 38146 ft | 412 kts | 323° |
| 2026-04-24 11:57 | 48.47494 | 13.65478 | 38145 ft | 412 kts | 323° |
| 2026-04-24 11:58 | 48.51758 | 13.59692 | 38150 ft | 412 kts | 323° |
| 2026-04-24 11:58 | 48.56021 | 13.53889 | 38153 ft | 413 kts | 322° |
| 2026-04-24 11:59 | 48.60044 | 13.47729 | 38154 ft | 418 kts | 314° |
| 2026-04-24 11:59 | 48.63759 | 13.40973 | 38153 ft | 418 kts | 314° |
| 2026-04-24 12:00 | 48.67482 | 13.34218 | 38155 ft | 418 kts | 314° |
| 2026-04-24 12:00 | 48.71195 | 13.27444 | 38156 ft | 417 kts | 314° |
| 2026-04-24 12:01 | 48.74904 | 13.20676 | 38158 ft | 417 kts | 314° |
| 2026-04-24 12:01 | 48.78604 | 13.13895 | 38161 ft | 418 kts | 314° |
| 2026-04-24 12:02 | 48.82306 | 13.07109 | 38161 ft | 417 kts | 312° |
| 2026-04-24 12:02 | 48.85968 | 13.00343 | 38169 ft | 417 kts | 312° |
| 2026-04-24 12:03 | 48.89656 | 12.93544 | 38170 ft | 417 kts | 312° |
| 2026-04-24 12:03 | 48.93341 | 12.86735 | 38170 ft | 417 kts | 312° |
| 2026-04-24 12:04 | 48.97010 | 12.79904 | 38172 ft | 417 kts | 312° |
| 2026-04-24 12:04 | 49.00688 | 12.73071 | 38171 ft | 417 kts | 312° |
| 2026-04-24 12:05 | 49.04351 | 12.66228 | 38170 ft | 416 kts | 311° |
| 2026-04-24 12:05 | 49.08021 | 12.59385 | 38171 ft | 417 kts | 311° |
| 2026-04-24 12:06 | 49.11683 | 12.52534 | 38170 ft | 416 kts | 311° |
| 2026-04-24 12:06 | 49.15326 | 12.45665 | 38170 ft | 416 kts | 311° |
| 2026-04-24 12:07 | 49.18968 | 12.38787 | 38170 ft | 416 kts | 311° |
| 2026-04-24 12:07 | 49.22587 | 12.31953 | 38174 ft | 416 kts | 311° |
| 2026-04-24 12:08 | 49.26219 | 12.25058 | 38176 ft | 416 kts | 311° |
| 2026-04-24 12:08 | 49.29850 | 12.18156 | 38175 ft | 415 kts | 310° |
| 2026-04-24 12:09 | 49.33479 | 12.11263 | 38171 ft | 415 kts | 310° |
| 2026-04-24 12:09 | 49.37088 | 12.04379 | 38150 ft | 409 kts | 310° |
| 2026-04-24 12:10 | 49.38859 | 12.00995 | 37707 ft | 406 kts | 310° |
| 2026-04-24 12:10 | 49.40636 | 11.97602 | 37074 ft | 408 kts | 310° |
| 2026-04-24 12:10 | 49.42419 | 11.94191 | 36576 ft | 410 kts | 310° |
| 2026-04-24 12:11 | 49.45992 | 11.87325 | 35579 ft | 414 kts | 310° |
| 2026-04-24 12:11 | 49.47795 | 11.83853 | 35075 ft | 417 kts | 310° |
| 2026-04-24 12:11 | 49.49610 | 11.80350 | 34580 ft | 420 kts | 310° |
| 2026-04-24 12:11 | 49.51434 | 11.76821 | 34208 ft | 423 kts | 310° |
| 2026-04-24 12:12 | 49.53275 | 11.73275 | 34136 ft | 425 kts | 310° |
| 2026-04-24 12:12 | 49.56974 | 11.66119 | 34137 ft | 428 kts | 310° |
| 2026-04-24 12:13 | 49.60676 | 11.58931 | 34146 ft | 429 kts | 310° |
| 2026-04-24 12:13 | 49.64353 | 11.51759 | 34146 ft | 428 kts | 310° |
| 2026-04-24 12:14 | 49.68050 | 11.44541 | 34147 ft | 428 kts | 310° |
| 2026-04-24 12:14 | 49.71741 | 11.37312 | 34143 ft | 429 kts | 310° |
| 2026-04-24 12:15 | 49.75435 | 11.30062 | 34145 ft | 429 kts | 309° |
| 2026-04-24 12:15 | 49.79121 | 11.22794 | 34144 ft | 429 kts | 309° |
| 2026-04-24 12:16 | 49.82816 | 11.15515 | 34141 ft | 430 kts | 309° |
| 2026-04-24 12:16 | 49.86506 | 11.08216 | 34143 ft | 430 kts | 309° |
| 2026-04-24 12:17 | 49.90190 | 11.00892 | 34143 ft | 431 kts | 309° |
| 2026-04-24 12:17 | 49.93881 | 10.93560 | 34150 ft | 431 kts | 309° |
| 2026-04-24 12:18 | 49.97569 | 10.86207 | 34156 ft | 432 kts | 309° |
| 2026-04-24 12:18 | 50.01222 | 10.78881 | 34161 ft | 431 kts | 308° |
| 2026-04-24 12:19 | 50.04892 | 10.71501 | 34169 ft | 431 kts | 308° |
| 2026-04-24 12:19 | 50.08562 | 10.64123 | 34177 ft | 430 kts | 308° |
| 2026-04-24 12:20 | 50.12220 | 10.56741 | 34182 ft | 430 kts | 307° |
| 2026-04-24 12:20 | 50.15855 | 10.49348 | 34176 ft | 430 kts | 308° |
| 2026-04-24 12:21 | 50.19496 | 10.41937 | 34175 ft | 430 kts | 307° |
| 2026-04-24 12:21 | 50.23011 | 10.34384 | 34176 ft | 430 kts | 305° |
| 2026-04-24 12:22 | 50.26443 | 10.26698 | 34182 ft | 431 kts | 305° |
| 2026-04-24 12:22 | 50.29874 | 10.19009 | 34184 ft | 431 kts | 305° |
| 2026-04-24 12:23 | 50.33312 | 10.11311 | 34185 ft | 432 kts | 305° |
| 2026-04-24 12:23 | 50.36751 | 10.03592 | 34188 ft | 432 kts | 305° |
| 2026-04-24 12:24 | 50.40178 | 9.95857 | 34188 ft | 432 kts | 304° |
| 2026-04-24 12:24 | 50.43577 | 9.88149 | 34194 ft | 432 kts | 304° |
| 2026-04-24 12:25 | 50.47003 | 9.80390 | 34200 ft | 433 kts | 304° |
| 2026-04-24 12:25 | 50.49842 | 9.73920 | 34202 ft | 432 kts | 304° |
| 2026-04-24 12:26 | 50.53246 | 9.66132 | 34220 ft | 432 kts | 304° |
| 2026-04-24 12:26 | 50.56646 | 9.58340 | 34213 ft | 432 kts | 304° |
| 2026-04-24 12:27 | 50.60050 | 9.50540 | 34229 ft | 432 kts | 304° |
| 2026-04-24 12:27 | 50.63446 | 9.42728 | 34220 ft | 432 kts | 303° |
| 2026-04-24 12:28 | 50.66823 | 9.34907 | 34119 ft | 430 kts | 303° |
| 2026-04-24 12:28 | 50.68486 | 9.31063 | 33865 ft | 420 kts | 303° |
| 2026-04-24 12:28 | 50.70123 | 9.27272 | 33614 ft | 416 kts | 303° |
| 2026-04-24 12:28 | 50.71742 | 9.23498 | 33364 ft | 414 kts | 303° |
| 2026-04-24 12:29 | 50.73354 | 9.19740 | 33113 ft | 414 kts | 303° |
| 2026-04-24 12:29 | 50.74975 | 9.15966 | 32863 ft | 415 kts | 303° |
| 2026-04-24 12:29 | 50.76596 | 9.12185 | 32611 ft | 416 kts | 303° |
| 2026-04-24 12:29 | 50.78217 | 9.08389 | 32354 ft | 416 kts | 303° |
| 2026-04-24 12:30 | 50.79838 | 9.04596 | 32122 ft | 417 kts | 303° |
| 2026-04-24 12:30 | 50.81460 | 9.00789 | 31860 ft | 417 kts | 303° |
| 2026-04-24 12:30 | 50.83090 | 8.96989 | 31586 ft | 418 kts | 303° |
| 2026-04-24 12:30 | 50.84845 | 8.93313 | 31079 ft | 419 kts | 308° |
| 2026-04-24 12:31 | 50.86675 | 8.89726 | 30548 ft | 420 kts | 308° |
| 2026-04-24 12:31 | 50.88725 | 8.86425 | 30170 ft | 423 kts | 321° |
| 2026-04-24 12:31 | 50.91244 | 8.84160 | 29781 ft | 420 kts | 336° |
| 2026-04-24 12:31 | 50.93971 | 8.82531 | 29416 ft | 409 kts | 338° |
| 2026-04-24 12:32 | 50.96609 | 8.80947 | 28898 ft | 403 kts | 337° |
| 2026-04-24 12:32 | 50.99218 | 8.79363 | 28327 ft | 399 kts | 337° |
| 2026-04-24 12:32 | 51.01801 | 8.77799 | 27768 ft | 395 kts | 337° |
| 2026-04-24 12:32 | 51.04319 | 8.76257 | 27230 ft | 389 kts | 337° |
| 2026-04-24 12:33 | 51.06848 | 8.74705 | 26676 ft | 380 kts | 337° |
| 2026-04-24 12:33 | 51.09271 | 8.73221 | 26232 ft | 377 kts | 337° |
| 2026-04-24 12:33 | 51.11752 | 8.71716 | 25750 ft | 376 kts | 337° |
| 2026-04-24 12:33 | 51.14157 | 8.70254 | 25274 ft | 374 kts | 337° |
| 2026-04-24 12:34 | 51.16576 | 8.68774 | 24805 ft | 371 kts | 337° |
| 2026-04-24 12:34 | 51.18975 | 8.67298 | 24326 ft | 368 kts | 336° |
| 2026-04-24 12:34 | 51.21356 | 8.65828 | 23858 ft | 365 kts | 337° |
| 2026-04-24 12:34 | 51.23717 | 8.64368 | 23392 ft | 362 kts | 337° |
| 2026-04-24 12:35 | 51.26055 | 8.62934 | 22928 ft | 358 kts | 337° |
| 2026-04-24 12:35 | 51.28369 | 8.61508 | 22464 ft | 354 kts | 337° |
| 2026-04-24 12:35 | 51.30658 | 8.60094 | 22014 ft | 350 kts | 337° |
| 2026-04-24 12:35 | 51.32916 | 8.58706 | 21572 ft | 346 kts | 337° |
| 2026-04-24 12:36 | 51.35146 | 8.57325 | 21124 ft | 342 kts | 337° |
| 2026-04-24 12:36 | 51.37352 | 8.55960 | 20684 ft | 337 kts | 337° |
| 2026-04-24 12:36 | 51.39523 | 8.54619 | 20252 ft | 333 kts | 337° |
| 2026-04-24 12:36 | 51.41669 | 8.53286 | 19825 ft | 328 kts | 337° |
| 2026-04-24 12:37 | 51.43778 | 8.51972 | 19399 ft | 322 kts | 337° |
| 2026-04-24 12:37 | 51.45854 | 8.50672 | 18991 ft | 319 kts | 337° |
| 2026-04-24 12:37 | 51.47921 | 8.49396 | 18577 ft | 317 kts | 338° |
| 2026-04-24 12:37 | 51.49971 | 8.48118 | 18163 ft | 315 kts | 338° |
| 2026-04-24 12:38 | 51.52009 | 8.46844 | 17751 ft | 313 kts | 338° |
| 2026-04-24 12:38 | 51.54034 | 8.45580 | 17342 ft | 311 kts | 338° |
| 2026-04-24 12:38 | 51.56051 | 8.44322 | 16932 ft | 309 kts | 338° |
| 2026-04-24 12:39 | 51.62008 | 8.40598 | 15715 ft | 303 kts | 338° |
| 2026-04-24 12:39 | 51.63943 | 8.39382 | 15324 ft | 301 kts | 338° |
| 2026-04-24 12:39 | 51.65913 | 8.38145 | 14914 ft | 299 kts | 338° |
| 2026-04-24 12:40 | 51.67846 | 8.36935 | 14515 ft | 298 kts | 338° |
| 2026-04-24 12:40 | 51.69756 | 8.35744 | 14006 ft | 299 kts | 339° |
| 2026-04-24 12:40 | 51.71735 | 8.34536 | 13314 ft | 306 kts | 339° |
| 2026-04-24 12:40 | 51.73693 | 8.33331 | 13122 ft | 295 kts | 339° |
| 2026-04-24 12:41 | 51.75578 | 8.32168 | 12886 ft | 286 kts | 339° |
| 2026-04-24 12:41 | 51.77423 | 8.31034 | 12472 ft | 281 kts | 339° |
| 2026-04-24 12:41 | 51.79244 | 8.29912 | 11885 ft | 279 kts | 339° |
| 2026-04-24 12:41 | 51.81051 | 8.28798 | 11336 ft | 277 kts | 339° |
| 2026-04-24 12:42 | 51.82845 | 8.27699 | 10786 ft | 274 kts | 339° |
| 2026-04-24 12:42 | 51.84620 | 8.26602 | 10232 ft | 272 kts | 339° |
| 2026-04-24 12:42 | 51.86378 | 8.25514 | 9679 ft | 269 kts | 339° |
| 2026-04-24 12:42 | 51.88117 | 8.24430 | 9131 ft | 268 kts | 339° |
| 2026-04-24 12:43 | 51.89856 | 8.23350 | 8750 ft | 266 kts | 340° |
| 2026-04-24 12:43 | 51.91581 | 8.22281 | 8373 ft | 264 kts | 339° |
| 2026-04-24 12:43 | 51.93292 | 8.21224 | 8001 ft | 262 kts | 339° |
| 2026-04-24 12:43 | 51.94997 | 8.20171 | 7632 ft | 261 kts | 339° |
| 2026-04-24 12:44 | 51.96688 | 8.19124 | 7284 ft | 259 kts | 339° |
| 2026-04-24 12:44 | 51.98365 | 8.18082 | 6929 ft | 258 kts | 339° |
| 2026-04-24 12:44 | 52.00004 | 8.17062 | 6782 ft | 247 kts | 339° |
| 2026-04-24 12:44 | 52.01559 | 8.16096 | 6661 ft | 237 kts | 339° |
| 2026-04-24 12:45 | 52.03064 | 8.15150 | 6530 ft | 226 kts | 339° |
| 2026-04-24 12:45 | 52.04489 | 8.14260 | 6400 ft | 213 kts | 339° |
| 2026-04-24 12:45 | 52.05818 | 8.13440 | 6204 ft | 197 kts | 339° |
| 2026-04-24 12:45 | 52.07092 | 8.12644 | 5738 ft | 195 kts | 339° |
| 2026-04-24 12:46 | 52.08356 | 8.11852 | 5277 ft | 194 kts | 338° |
| 2026-04-24 12:46 | 52.09610 | 8.11065 | 4801 ft | 192 kts | 338° |
| 2026-04-24 12:46 | 52.10811 | 8.10312 | 4636 ft | 177 kts | 338° |
| 2026-04-24 12:46 | 52.11930 | 8.09613 | 4354 ft | 169 kts | 338° |
| 2026-04-24 12:47 | 52.13031 | 8.08925 | 4074 ft | 169 kts | 337° |
| 2026-04-24 12:47 | 52.14124 | 8.08239 | 3860 ft | 168 kts | 337° |
| 2026-04-24 12:47 | 52.15211 | 8.07553 | 3614 ft | 167 kts | 335° |
| 2026-04-24 12:47 | 52.16231 | 8.06645 | 3370 ft | 167 kts | 324° |
| 2026-04-24 12:48 | 52.17129 | 8.05462 | 3140 ft | 166 kts | 315° |
| 2026-04-24 12:48 | 52.17880 | 8.04074 | 3039 ft | 162 kts | 307° |
| 2026-04-24 12:48 | 52.18472 | 8.02520 | 3032 ft | 162 kts | 298° |
| 2026-04-24 12:48 | 52.18898 | 8.00821 | 3024 ft | 163 kts | 289° |
| 2026-04-24 12:49 | 52.19146 | 7.99015 | 3020 ft | 164 kts | 280° |
| 2026-04-24 12:49 | 52.19198 | 7.97158 | 3078 ft | 166 kts | 271° |
| 2026-04-24 12:49 | 52.19025 | 7.95292 | 3047 ft | 168 kts | 260° |
| 2026-04-24 12:49 | 52.18693 | 7.93463 | 3024 ft | 168 kts | 257° |
| 2026-04-24 12:50 | 52.18323 | 7.91653 | 2899 ft | 168 kts | 255° |
| 2026-04-24 12:50 | 52.17948 | 7.89855 | 2710 ft | 168 kts | 255° |
| 2026-04-24 12:50 | 52.17579 | 7.88088 | 2492 ft | 166 kts | 254° |
| 2026-04-24 12:50 | 52.17211 | 7.86334 | 2272 ft | 160 kts | 254° |
| 2026-04-24 12:51 | 52.16856 | 7.84630 | 2062 ft | 158 kts | 253° |
| 2026-04-24 12:51 | 52.16503 | 7.82943 | 1859 ft | 157 kts | 253° |
| 2026-04-24 12:51 | 52.16156 | 7.81290 | 1646 ft | 149 kts | 253° |
| 2026-04-24 12:51 | 52.15836 | 7.79766 | 1450 ft | 135 kts | 252° |
| 2026-04-24 12:52 | 52.15545 | 7.78379 | 1296 ft | 125 kts | 252° |
| 2026-04-24 12:52 | 52.15270 | 7.77066 | 1124 ft | 121 kts | 252° |
| 2026-04-24 12:52 | 52.15001 | 7.75787 | 965 ft | 119 kts | 252° |
| 2026-04-24 12:52 | 52.14736 | 7.74504 | 793 ft | 120 kts | 252° |
| 2026-04-24 12:53 | 52.14468 | 7.73206 | 634 ft | 121 kts | 252° |
| 2026-04-24 12:53 | 52.14185 | 7.71908 | 476 ft | 121 kts | 252° |
| 2026-04-24 12:53 | 52.13913 | 7.70610 | 324 ft | 121 kts | 252° |
| 2026-04-24 12:53 | 52.13639 | 7.69309 | 179 ft | 117 kts | 252° |
| 2026-04-24 12:54 | 52.13418 | 7.68256 | 169 ft | 75 kts | 251° |
| 2026-04-24 12:54 | 52.13284 | 7.67619 | 166 ft | 49 kts | 251° |
| 2026-04-24 12:54 | 52.13193 | 7.67187 | 165 ft | 25 kts | 251° |
| 2026-04-24 12:54 | 52.13113 | 7.67046 | 167 ft | 17 kts | 176° |
| 2026-04-24 12:55 | 52.13029 | 7.67201 | 168 ft | 22 kts | 97° |
| 2026-04-24 12:55 | 52.13062 | 7.67410 | 168 ft | 22 kts | 71° |
| 2026-04-24 12:55 | 52.13119 | 7.67681 | 167 ft | 28 kts | 71° |
| 2026-04-24 12:55 | 52.13169 | 7.67915 | 168 ft | 20 kts | 71° |
| 2026-04-24 12:56 | 52.13220 | 7.68151 | 168 ft | 24 kts | 71° |
| 2026-04-24 12:56 | 52.13273 | 7.68402 | 168 ft | 26 kts | 71° |
| 2026-04-24 12:56 | 52.13325 | 7.68650 | 168 ft | 22 kts | 71° |
| 2026-04-24 12:56 | 52.13373 | 7.68876 | 168 ft | 19 kts | 71° |
| 2026-04-24 12:57 | 52.13421 | 7.69104 | 168 ft | 19 kts | 70° |
| 2026-04-24 12:57 | 52.13395 | 7.69243 | 168 ft | 17 kts | 157° |
| 2026-04-24 12:57 | 52.13291 | 7.69300 | 168 ft | 15 kts | 161° |
| 2026-04-24 12:57 | 52.13235 | 7.69381 | 168 ft | 8 kts | 127° |
| 2026-04-24 12:58 | 52.13182 | 7.69381 | 168 ft | 5 kts | 197° |
| 2026-04-24 12:58 | 52.13170 | 7.69375 | 168 ft | 0 kts | 198° |
| 2026-04-24 12:58 | 52.13168 | 7.69373 | 168 ft | 0 kts | 197° |